Time;durP1;ratioP1;P1;durP2;ratioP2;P2;SDS_P1;SDS_P2;PMS_P1;PMS_P2;Temp;Humidity;BMP_temperature;BMP_pressure;BME280_temperature;BME280_humidity;BME280_pressure;Samples;Min_cycle;Max_cycle;Signal;HPM_P1;HPM_P2
2022/04/24 00:00:04;;;;;;;20.33;7.90;;;;;;;13.30;69.20;99988.22;7390926;19;20493;-64
2022/04/24 00:02:31;;;;;;;18.63;6.65;;;;;;;13.34;69.19;99993.91;7387958;19;20400;-64
2022/04/24 00:04:58;;;;;;;18.77;6.60;;;;;;;13.33;68.70;99992.28;7390602;19;20015;-65
2022/04/24 00:07:25;;;;;;;22.33;6.95;;;;;;;13.27;68.87;99999.97;7385107;19;20631;-65
2022/04/24 00:09:52;;;;;;;18.65;7.15;;;;;;;13.25;69.39;99996.72;7387111;19;20082;-66
2022/04/24 00:12:19;;;;;;;19.85;6.95;;;;;;;13.23;69.57;99990.78;7387536;19;20018;-63
2022/04/24 00:14:47;;;;;;;20.05;6.60;;;;;;;13.18;69.37;99998.47;7386805;19;20011;-64
2022/04/24 00:17:16;;;;;;;19.98;7.28;;;;;;;13.17;69.30;99999.47;7386956;19;20002;-65
2022/04/24 00:19:44;;;;;;;17.58;6.80;;;;;;;13.09;69.42;99996.94;7386780;19;20026;-64
2022/04/24 00:22:11;;;;;;;21.17;7.53;;;;;;;13.06;69.99;99994.66;7391377;19;20007;-65
2022/04/24 00:24:38;;;;;;;20.52;7.40;;;;;;;13.02;69.76;99996.03;7385048;19;20043;-63
2022/04/24 00:27:07;;;;;;;21.00;7.20;;;;;;;13.02;70.12;99996.03;7390074;19;20014;-64
2022/04/24 00:29:34;;;;;;;22.05;8.13;;;;;;;13.01;69.78;99996.22;7384842;19;20015;-64
2022/04/24 00:32:01;;;;;;;21.65;6.63;;;;;;;12.94;70.15;99996.19;7388101;19;20278;-66
2022/04/24 00:34:29;;;;;;;18.52;7.57;;;;;;;12.92;70.43;99995.53;7389117;19;20039;-63
2022/04/24 00:36:55;;;;;;;23.48;7.47;;;;;;;12.85;70.60;99992.84;7385079;19;20018;-65
2022/04/24 00:39:22;;;;;;;22.75;7.93;;;;;;;12.76;70.98;99999.25;7384506;19;20014;-62
2022/04/24 00:41:51;;;;;;;24.73;7.50;;;;;;;12.74;70.87;100001.28;7386182;19;20182;-64
2022/04/24 00:44:19;;;;;;;19.05;7.28;;;;;;;12.75;71.34;100002.06;7386818;19;20020;-66
2022/04/24 00:47:18;;;;;;;23.58;7.63;;;;;;;12.77;71.31;99995.59;7384545;19;20249;-66
2022/04/24 00:49:45;;;;;;;24.00;6.95;;;;;;;12.81;70.62;99996.88;7383368;19;20011;-65
2022/04/24 00:52:13;;;;;;;23.77;7.18;;;;;;;12.71;70.91;99998.16;7388031;19;20021;-65
2022/04/24 00:54:40;;;;;;;18.67;6.65;;;;;;;12.68;71.50;99995.91;7388321;19;20015;-67
2022/04/24 00:57:10;;;;;;;20.58;7.03;;;;;;;12.64;71.50;100000.75;7385898;19;20114;-65
2022/04/24 00:59:37;;;;;;;22.33;6.85;;;;;;;12.65;72.06;100009.47;7388108;19;20014;-65
2022/04/24 01:02:05;;;;;;;23.65;7.32;;;;;;;12.63;71.66;100003.56;7384816;19;20013;-67
2022/04/24 01:04:36;;;;;;;18.27;6.65;;;;;;;12.62;71.65;100008.03;7387949;19;20078;-66
2022/04/24 01:07:05;;;;;;;23.35;7.80;;;;;;;12.61;72.06;100014.31;7387419;19;20463;-63
2022/04/24 01:09:33;;;;;;;20.48;6.93;;;;;;;12.58;71.71;100005.97;7386882;19;20078;-65
2022/04/24 01:12:01;;;;;;;21.55;7.30;;;;;;;12.53;71.92;100014.44;7385269;19;20075;-63
2022/04/24 01:14:36;;;;;;;24.17;7.40;;;;;;;12.40;72.36;100012.44;7384427;19;20011;-64
2022/04/24 01:17:06;;;;;;;21.40;8.13;;;;;;;12.39;73.01;100010.81;7384534;19;20015;-65
2022/04/24 01:19:33;;;;;;;19.27;7.18;;;;;;;12.39;72.79;100021.34;7381984;19;20199;-64
2022/04/24 01:22:00;;;;;;;22.27;7.20;;;;;;;12.41;72.86;100018.53;7387549;19;20007;-67
2022/04/24 01:24:29;;;;;;;26.50;7.60;;;;;;;12.42;73.50;100022.81;7388084;19;20018;-66
2022/04/24 01:26:57;;;;;;;22.85;7.15;;;;;;;12.39;72.51;100018.72;7387073;19;20019;-63
2022/04/24 01:29:24;;;;;;;21.70;7.65;;;;;;;12.36;72.83;100015.63;7383682;19;20018;-65
2022/04/24 01:31:52;;;;;;;27.20;8.32;;;;;;;12.42;74.37;100021.00;7388556;19;20077;-64
2022/04/24 01:34:20;;;;;;;26.05;8.27;;;;;;;12.45;72.99;100019.78;7385208;19;20074;-66
2022/04/24 01:36:47;;;;;;;20.20;6.75;;;;;;;12.46;73.07;100023.25;7385565;19;20021;-65
2022/04/24 01:39:17;;;;;;;17.83;6.75;;;;;;;12.44;72.69;100026.09;7381010;19;20450;-65
2022/04/24 01:41:47;;;;;;;26.38;7.63;;;;;;;12.43;72.72;100029.75;7364938;19;20475;-65
2022/04/24 01:44:14;;;;;;;21.00;7.00;;;;;;;12.41;72.92;100037.00;7379145;19;20034;-63
2022/04/24 01:46:41;;;;;;;25.65;7.68;;;;;;;12.33;73.21;100030.03;7383130;19;20015;-65
2022/04/24 01:49:08;;;;;;;21.60;7.15;;;;;;;12.34;73.11;100026.38;7384375;19;20043;-68
2022/04/24 01:51:35;;;;;;;16.95;7.47;;;;;;;12.31;73.41;100025.91;7387159;19;20059;-66
2022/04/24 01:54:01;;;;;;;21.83;7.40;;;;;;;12.28;73.46;100021.84;7384591;19;20464;-65
2022/04/24 01:56:28;;;;;;;23.23;8.55;;;;;;;12.25;73.24;100027.47;7383959;19;20033;-67
2022/04/24 01:58:55;;;;;;;21.55;7.70;;;;;;;12.23;73.87;100034.78;7385696;19;20371;-66
2022/04/24 02:01:22;;;;;;;16.60;6.70;;;;;;;12.18;73.87;100021.31;7383644;19;20027;-66
2022/04/24 02:03:49;;;;;;;20.25;7.10;;;;;;;12.18;73.81;100031.84;7386534;19;20114;-65
2022/04/24 02:06:16;;;;;;;21.35;7.13;;;;;;;12.17;74.25;100024.94;7383825;19;20011;-65
2022/04/24 02:08:43;;;;;;;21.63;7.25;;;;;;;12.19;74.27;100025.56;7385865;19;20650;-65
2022/04/24 02:11:10;;;;;;;23.70;7.90;;;;;;;12.17;74.42;100024.94;7381967;19;20011;-65
2022/04/24 02:13:37;;;;;;;16.27;6.35;;;;;;;12.20;74.25;100029.84;7385431;19;20013;-65
2022/04/24 02:16:04;;;;;;;17.70;6.75;;;;;;;12.25;73.89;100032.75;7385965;19;20086;-66
2022/04/24 02:18:31;;;;;;;27.25;7.82;;;;;;;12.24;73.91;100025.81;7383147;19;20010;-65
2022/04/24 02:20:58;;;;;;;20.95;6.90;;;;;;;12.24;73.75;100027.69;7390856;19;20013;-64
2022/04/24 02:23:25;;;;;;;24.05;7.10;;;;;;;12.19;74.10;100032.69;7387593;19;20054;-66
2022/04/24 02:25:52;;;;;;;22.58;7.13;;;;;;;12.18;74.26;100034.50;7391285;19;20229;-64
2022/04/24 02:28:19;;;;;;;21.17;8.40;;;;;;;11.97;74.72;100032.59;7388478;19;20017;-63
2022/04/24 02:30:45;;;;;;;21.80;7.47;;;;;;;11.97;75.02;100034.41;7373598;19;20015;-66
2022/04/24 02:33:12;;;;;;;20.70;6.85;;;;;;;11.91;75.49;100038.59;7386203;19;20019;-65
2022/04/24 02:35:39;;;;;;;22.88;7.07;;;;;;;11.88;75.21;100049.50;7391886;19;20011;-67
2022/04/24 02:38:06;;;;;;;20.63;6.93;;;;;;;11.89;75.58;100039.75;7390793;19;20040;-64
2022/04/24 02:40:34;;;;;;;20.27;7.80;;;;;;;11.92;75.85;100045.50;7390093;19;20018;-65
2022/04/24 02:43:02;;;;;;;23.17;7.65;;;;;;;11.91;75.72;100032.47;7387592;19;20130;-66
2022/04/24 02:45:29;;;;;;;19.90;7.55;;;;;;;11.90;75.31;100047.47;7388460;19;20015;-63
2022/04/24 02:47:56;;;;;;;24.00;8.60;;;;;;;11.90;75.50;100034.31;7389755;19;20014;-65
2022/04/24 02:50:23;;;;;;;23.92;7.40;;;;;;;11.89;75.47;100043.19;7390701;19;20578;-66
2022/04/24 02:52:52;;;;;;;26.13;7.90;;;;;;;11.90;75.55;100044.84;7392127;19;20055;-64
2022/04/24 02:55:20;;;;;;;24.25;8.23;;;;;;;11.88;75.79;100040.78;7393409;19;20431;-65
2022/04/24 02:57:48;;;;;;;30.35;8.35;;;;;;;11.85;75.79;100039.28;7391266;19;20678;-66
2022/04/24 03:00:39;;;;;;;25.48;7.40;;;;;;;11.88;75.78;100044.22;7393069;19;20067;-64
2022/04/24 03:03:09;;;;;;;19.42;6.90;;;;;;;11.88;75.73;100038.97;7393196;19;20014;-63
2022/04/24 03:05:36;;;;;;;27.25;8.75;;;;;;;11.86;75.95;100038.31;7393401;19;20096;-66
2022/04/24 03:08:03;;;;;;;22.48;8.63;;;;;;;11.85;75.90;100041.09;7392694;19;20337;-66
2022/04/24 03:10:30;;;;;;;28.40;8.90;;;;;;;11.82;76.12;100030.94;7390141;19;20026;-64
2022/04/24 03:12:57;;;;;;;23.40;8.38;;;;;;;11.78;76.31;100032.31;7388502;19;20026;-64
2022/04/24 03:15:24;;;;;;;23.77;8.00;;;;;;;11.74;76.53;100034.47;7389576;19;20887;-65
2022/04/24 03:17:54;;;;;;;24.55;8.02;;;;;;;11.71;76.70;100029.53;7390446;19;20098;-65
2022/04/24 03:20:22;;;;;;;21.27;8.43;;;;;;;11.71;76.78;100028.72;7392555;19;20029;-65
2022/04/24 03:22:50;;;;;;;23.90;8.48;;;;;;;11.67;76.98;100037.97;7389499;19;20006;-68
2022/04/24 03:25:17;;;;;;;21.50;8.48;;;;;;;11.63;77.08;100026.97;7388896;19;20086;-64
2022/04/24 03:27:44;;;;;;;21.27;7.78;;;;;;;11.64;77.03;100035.69;7389766;19;20010;-66
2022/04/24 03:30:11;;;;;;;25.77;9.45;;;;;;;11.63;77.33;100031.44;7369982;19;20010;-64
2022/04/24 03:32:39;;;;;;;19.95;8.02;;;;;;;11.63;77.29;100037.50;7379929;19;21482;-67
2022/04/24 03:35:08;;;;;;;20.88;9.02;;;;;;;11.65;77.15;100039.97;7389421;19;20712;-65
2022/04/24 03:37:39;;;;;;;19.50;7.28;;;;;;;11.66;77.03;100041.59;7391170;19;20034;-66
2022/04/24 03:40:06;;;;;;;24.98;10.90;;;;;;;11.68;77.51;100048.34;7389934;19;20014;-64
2022/04/24 03:42:33;;;;;;;20.48;8.63;;;;;;;11.67;77.34;100037.97;7386237;19;20035;-65
2022/04/24 03:45:00;;;;;;;28.25;9.13;;;;;;;11.67;77.29;100045.88;7388838;19;20025;-64
2022/04/24 03:47:27;;;;;;;20.48;7.93;;;;;;;11.66;77.23;100039.78;7386168;19;20010;-65
2022/04/24 03:49:54;;;;;;;29.60;9.07;;;;;;;11.65;77.44;100048.69;7389232;19;20014;-67
2022/04/24 03:52:21;;;;;;;20.05;8.60;;;;;;;11.68;77.38;100048.34;7391969;19;20082;-64
2022/04/24 03:54:47;;;;;;;26.38;8.80;;;;;;;11.68;77.19;100047.53;7390066;19;20015;-66
2022/04/24 03:57:14;;;;;;;26.90;9.60;;;;;;;11.67;77.19;100049.34;7388270;19;20015;-67
2022/04/24 03:59:41;;;;;;;24.52;10.00;;;;;;;11.65;77.64;100058.41;7386068;19;20025;-66
2022/04/24 04:02:08;;;;;;;20.92;9.48;;;;;;;11.65;77.92;100059.22;7387430;19;20010;-65
2022/04/24 04:04:35;;;;;;;26.92;8.93;;;;;;;11.64;77.56;100060.22;7387262;19;20006;-66
2022/04/24 04:07:03;;;;;;;21.10;7.50;;;;;;;11.65;77.85;100064.50;7390321;19;20332;-66
2022/04/24 04:09:30;;;;;;;28.65;9.25;;;;;;;11.64;77.12;100073.41;7387743;19;20081;-65
2022/04/24 04:11:57;;;;;;;23.70;9.77;;;;;;;11.54;77.73;100071.00;7390019;19;20098;-65
2022/04/24 04:14:24;;;;;;;30.50;10.27;;;;;;;11.50;77.97;100064.47;7389823;19;20081;-64
2022/04/24 04:16:51;;;;;;;27.48;9.55;;;;;;;11.51;77.96;100070.56;7388668;19;20007;-64
2022/04/24 04:19:18;;;;;;;29.65;10.18;;;;;;;11.45;78.35;100068.63;7384730;19;20011;-66
2022/04/24 04:21:45;;;;;;;30.00;10.27;;;;;;;11.40;78.65;100066.53;7388206;19;20646;-65
2022/04/24 04:24:12;;;;;;;30.05;9.52;;;;;;;11.42;78.62;100082.97;7390263;19;20090;-64
2022/04/24 04:26:40;;;;;;;23.60;9.95;;;;;;;11.42;78.52;100076.91;7387449;19;20010;-64
2022/04/24 04:29:06;;;;;;;32.97;11.70;;;;;;;11.39;79.17;100079.88;7386639;19;20028;-64
2022/04/24 04:31:33;;;;;;;29.67;10.05;;;;;;;11.42;78.90;100082.97;7356975;19;20090;-66
2022/04/24 04:34:00;;;;;;;27.08;10.52;;;;;;;11.42;78.93;100088.25;7388844;19;20006;-64
2022/04/24 04:36:27;;;;;;;28.33;10.20;;;;;;;11.44;78.76;100085.41;7390423;19;20075;-62
2022/04/24 04:38:54;;;;;;;22.85;9.65;;;;;;;11.45;78.76;100082.63;7388817;19;20014;-65
2022/04/24 04:41:21;;;;;;;30.02;10.32;;;;;;;11.50;79.00;100092.63;7385333;19;20348;-64
2022/04/24 04:43:48;;;;;;;35.33;9.77;;;;;;;11.48;78.70;100091.97;7385294;19;20031;-66
2022/04/24 04:46:15;;;;;;;28.40;9.88;;;;;;;11.47;79.13;100096.44;7389036;19;20002;-65
2022/04/24 04:48:42;;;;;;;26.35;9.98;;;;;;;11.44;79.40;100083.59;7385733;19;20605;-65
2022/04/24 04:51:13;;;;;;;23.08;9.23;;;;;;;11.45;79.34;100101.06;7390105;19;20024;-64
2022/04/24 04:53:40;;;;;;;30.35;11.30;;;;;;;11.51;78.85;100096.91;7385080;19;20019;-65
2022/04/24 04:56:07;;;;;;;31.73;10.43;;;;;;;11.50;78.60;100113.69;7386217;19;20010;-65
2022/04/24 04:58:34;;;;;;;27.77;9.77;;;;;;;11.50;78.83;100105.78;7384642;19;20476;-65
2022/04/24 05:01:02;;;;;;;28.45;10.20;;;;;;;11.52;79.28;100104.63;7386391;19;20011;-65
2022/04/24 05:03:30;;;;;;;23.52;9.20;;;;;;;11.51;79.06;100116.16;7385023;19;20330;-65
2022/04/24 05:05:58;;;;;;;28.20;10.13;;;;;;;11.50;79.08;100117.16;7388258;19;20412;-65
2022/04/24 05:08:26;;;;;;;28.83;10.73;;;;;;;11.48;79.16;100127.03;7384871;19;20027;-67
2022/04/24 05:10:52;;;;;;;29.70;10.80;;;;;;;11.52;78.69;100132.78;7388825;19;20359;-65
2022/04/24 05:13:22;;;;;;;26.10;10.07;;;;;;;11.52;78.91;100135.44;7384145;19;20010;-64
2022/04/24 05:15:52;;;;;;;27.20;10.88;;;;;;;11.51;79.03;100139.06;7387661;19;20294;-66
2022/04/24 05:18:22;;;;;;;25.48;9.73;;;;;;;11.51;79.29;100145.16;7384416;19;20006;-64
2022/04/24 05:20:50;;;;;;;24.00;9.30;;;;;;;11.54;78.95;100150.06;7385296;19;20449;-63
2022/04/24 05:23:17;;;;;;;29.00;11.02;;;;;;;11.50;79.42;100148.78;7385136;19;20021;-66
2022/04/24 05:25:44;;;;;;;25.85;9.82;;;;;;;11.56;79.89;100158.63;7383949;19;20014;-63
2022/04/24 05:28:12;;;;;;;31.17;10.82;;;;;;;11.60;78.97;100156.44;7389094;19;20011;-63
2022/04/24 05:30:39;;;;;;;24.20;9.25;;;;;;;11.58;79.18;100161.88;7383681;19;20253;-66
2022/04/24 05:33:07;;;;;;;23.52;9.38;;;;;;;11.56;79.13;100165.69;7383603;19;20646;-66
2022/04/24 05:35:34;;;;;;;30.52;10.20;;;;;;;11.59;79.79;100163.50;7388686;19;20023;-65
2022/04/24 05:38:01;;;;;;;27.75;11.10;;;;;;;11.61;79.12;100171.25;7389827;19;20011;-65
2022/04/24 05:40:29;;;;;;;32.13;10.85;;;;;;;11.61;79.14;100179.16;7381657;19;20010;-66
2022/04/24 05:42:56;;;;;;;25.73;9.07;;;;;;;11.65;79.01;100176.97;7383376;19;20090;-66
2022/04/24 05:45:24;;;;;;;23.73;9.43;;;;;;;11.64;78.77;100186.69;7385452;19;20018;-65
2022/04/24 05:47:56;;;;;;;32.10;10.50;;;;;;;11.62;78.83;100182.63;7388045;19;20093;-63
2022/04/24 05:50:24;;;;;;;30.08;10.27;;;;;;;11.59;78.99;100187.22;7385616;19;20086;-65
2022/04/24 05:52:56;;;;;;;28.70;11.05;;;;;;;11.61;79.02;100188.88;7387392;19;20015;-64
2022/04/24 05:55:24;;;;;;;28.65;9.77;;;;;;;11.63;78.92;100187.69;7393358;19;20089;-64
2022/04/24 05:57:52;;;;;;;23.52;10.88;;;;;;;11.65;79.58;100195.44;7392775;19;20027;-63
2022/04/24 06:00:20;;;;;;;27.38;9.82;;;;;;;11.71;78.71;100200.00;7389666;19;20010;-64
2022/04/24 06:02:51;;;;;;;25.80;9.85;;;;;;;11.68;78.88;100198.56;7392234;19;20014;-65
2022/04/24 06:05:18;;;;;;;26.25;9.52;;;;;;;11.72;78.72;100205.09;7395311;19;20413;-65
2022/04/24 06:07:45;;;;;;;32.88;13.52;;;;;;;11.77;78.97;100209.88;7391158;19;20014;-65
2022/04/24 06:10:12;;;;;;;27.42;10.00;;;;;;;11.81;78.23;100208.53;7395775;19;20009;-67
2022/04/24 06:12:47;;;;;;;25.23;10.00;;;;;;;11.78;78.15;100209.72;7390059;19;20066;-66
2022/04/24 06:15:15;;;;;;;30.08;9.85;;;;;;;11.79;78.27;100218.41;7394076;19;20042;-65
2022/04/24 06:17:43;;;;;;;30.75;9.82;;;;;;;11.79;78.21;100213.16;7391122;19;20010;-64
2022/04/24 06:20:10;;;;;;;26.85;10.15;;;;;;;11.81;78.27;100216.44;7393330;19;20111;-64
2022/04/24 06:22:51;;;;;;;28.70;10.95;;;;;;;11.84;78.26;100221.34;7394700;19;20562;-64
2022/04/24 06:25:21;;;;;;;28.98;9.43;;;;;;;11.89;78.05;100221.63;7393628;19;20138;-63
2022/04/24 06:27:49;;;;;;;24.20;8.82;;;;;;;11.90;77.64;100221.47;7391378;19;20063;-63
2022/04/24 06:30:19;;;;;;;26.85;9.70;;;;;;;11.93;77.94;100221.13;7389245;19;20010;-65
2022/04/24 06:32:46;;;;;;;26.33;10.48;;;;;;;12.00;77.80;100232.59;7390837;19;20098;-63
2022/04/24 06:35:14;;;;;;;27.42;10.05;;;;;;;12.06;77.42;100235.53;7394060;19;20074;-62
2022/04/24 06:37:46;;;;;;;25.17;9.25;;;;;;;12.13;77.03;100239.94;7390819;19;20554;-63
2022/04/24 06:40:16;;;;;;;31.38;11.30;;;;;;;12.23;76.44;100250.22;7389873;19;20023;-64
2022/04/24 06:42:59;;;;;;;27.52;9.13;;;;;;;12.31;75.99;100253.59;7387930;19;20524;-64
2022/04/24 06:45:33;;;;;;;25.40;10.00;;;;;;;12.31;75.69;100247.50;7388213;19;20011;-63
2022/04/24 06:48:01;;;;;;;21.30;8.80;;;;;;;12.33;75.95;100251.63;7389881;19;20015;-64
2022/04/24 06:50:29;;;;;;;27.05;9.27;;;;;;;12.41;76.28;100248.91;7390637;19;20025;-62
2022/04/24 06:53:06;;;;;;;28.98;9.82;;;;;;;12.36;75.60;100247.78;7389574;19;20760;-66
2022/04/24 06:55:36;;;;;;;29.45;11.63;;;;;;;12.34;76.73;100263.00;7391915;19;20093;-64
2022/04/24 06:58:05;;;;;;;25.08;8.90;;;;;;;12.25;75.94;100254.31;7389197;19;20456;-65
2022/04/24 07:00:36;;;;;;;27.95;10.70;;;;;;;12.32;76.35;100257.88;7386428;19;20047;-64
2022/04/24 07:03:26;;;;;;;26.42;9.40;;;;;;;12.21;76.06;100255.66;7387656;19;20064;-66
2022/04/24 07:05:54;;;;;;;29.70;10.65;;;;;;;12.32;76.05;100263.16;7388568;19;20037;-66
2022/04/24 07:08:24;;;;;;;23.25;10.10;;;;;;;12.31;75.44;100258.06;7389305;19;20010;-65
2022/04/24 07:10:53;;;;;;;19.90;8.15;;;;;;;12.44;75.46;100256.44;7389869;19;20453;-64
2022/04/24 07:13:20;;;;;;;31.98;9.10;;;;;;;12.53;75.38;100267.75;7389773;19;20014;-64
2022/04/24 07:15:47;;;;;;;24.77;9.10;;;;;;;12.63;74.81;100264.88;7390064;19;20014;-64
2022/04/24 07:18:14;;;;;;;25.55;9.45;;;;;;;12.63;74.50;100273.59;7388562;19;20498;-67
2022/04/24 07:20:42;;;;;;;25.13;9.70;;;;;;;12.64;74.76;100267.34;7389811;19;20146;-64
2022/04/24 07:23:11;;;;;;;27.65;9.60;;;;;;;12.68;75.53;100276.53;7387784;19;20018;-64
2022/04/24 07:25:43;;;;;;;24.45;10.15;;;;;;;12.78;74.93;100284.19;7389159;19;20017;-65
2022/04/24 07:28:18;;;;;;;45.85;10.38;;;;;;;12.89;74.58;100281.09;7391013;19;20010;-66
2022/04/24 07:30:46;;;;;;;22.15;8.43;;;;;;;12.95;73.32;100280.38;7388876;19;20010;-64
2022/04/24 07:33:13;;;;;;;21.27;9.48;;;;;;;12.84;73.15;100281.66;7388568;19;20038;-63
2022/04/24 07:35:42;;;;;;;28.17;10.65;;;;;;;12.86;73.57;100282.28;7387663;19;20519;-63
2022/04/24 07:38:09;;;;;;;26.00;9.43;;;;;;;12.83;73.28;100289.75;7386143;19;20467;-65
2022/04/24 07:40:41;;;;;;;24.05;9.23;;;;;;;12.90;73.85;100290.63;7385655;19;20014;-65
2022/04/24 07:43:10;;;;;;;23.55;9.48;;;;;;;13.12;72.97;100289.78;7385721;19;20015;-64
2022/04/24 07:45:40;;;;;;;27.88;9.20;;;;;;;13.51;71.73;100283.38;7388078;19;20049;-65
2022/04/24 07:48:09;;;;;;;24.83;8.20;;;;;;;13.81;69.75;100295.53;7389648;19;20031;-63
2022/04/24 07:50:38;;;;;;;25.95;8.43;;;;;;;14.08;68.58;100296.59;7390413;19;20038;-64
2022/04/24 07:53:06;;;;;;;22.95;8.20;;;;;;;14.08;68.78;100296.59;7389091;19;20021;-65
2022/04/24 07:55:34;;;;;;;20.60;8.45;;;;;;;14.10;68.18;100298.06;7391438;19;20019;-65
2022/04/24 07:58:01;;;;;;;21.40;9.13;;;;;;;14.14;68.05;100296.66;7389542;19;20046;-66
2022/04/24 08:00:32;;;;;;;21.80;8.70;;;;;;;14.17;68.05;100298.09;7386500;19;20022;-65
2022/04/24 08:03:02;;;;;;;36.58;8.43;;;;;;;14.29;68.29;100293.13;7388956;19;20144;-63
2022/04/24 08:05:31;;;;;;;26.85;8.82;;;;;;;14.30;67.22;100297.41;7388879;19;20011;-66
2022/04/24 08:08:02;;;;;;;21.95;7.28;;;;;;;14.30;67.12;100300.06;7388270;19;20350;-66
2022/04/24 08:10:33;;;;;;;20.00;8.05;;;;;;;14.20;68.28;100300.38;7385518;19;20011;-64
2022/04/24 08:13:04;;;;;;;27.63;9.65;;;;;;;14.28;68.27;100300.25;7385137;19;20723;-65
2022/04/24 08:15:35;;;;;;;19.60;8.13;;;;;;;14.55;66.94;100306.63;7387551;19;20010;-66
2022/04/24 08:18:03;;;;;;;18.52;7.80;;;;;;;14.50;66.22;100304.56;7386279;19;20034;-62
2022/04/24 08:20:31;;;;;;;18.30;8.73;;;;;;;14.37;66.84;100306.28;7387375;19;20630;-65
2022/04/24 08:23:02;;;;;;;21.88;7.03;;;;;;;14.36;67.27;100313.41;7387401;19;20046;-64
2022/04/24 08:25:34;;;;;;;22.70;9.15;;;;;;;14.21;67.78;100322.38;7390891;19;20447;-65
2022/04/24 08:28:08;;;;;;;20.73;8.23;;;;;;;14.03;68.24;100313.03;7390227;19;20661;-67
2022/04/24 08:30:37;;;;;;;17.95;7.00;;;;;;;13.94;68.91;100313.34;7389337;19;20074;-63
2022/04/24 08:33:05;;;;;;;17.88;7.65;;;;;;;13.90;68.93;100310.25;7386527;19;20520;-66
2022/04/24 08:35:35;;;;;;;21.08;7.90;;;;;;;13.94;68.92;100314.16;7389892;19;20366;-63
2022/04/24 08:38:05;;;;;;;20.77;9.30;;;;;;;14.00;69.13;100304.66;7385454;19;20027;-66
2022/04/24 08:40:33;;;;;;;23.45;8.80;;;;;;;14.10;68.71;100303.34;7385811;19;20007;-65
2022/04/24 08:43:00;;;;;;;19.73;7.65;;;;;;;14.19;68.31;100305.84;7382480;19;20018;-64
2022/04/24 08:45:32;;;;;;;23.20;6.90;;;;;;;14.29;68.22;100303.72;7383194;19;20015;-63
2022/04/24 08:48:02;;;;;;;20.15;6.93;;;;;;;14.38;67.17;100308.72;7384961;19;20034;-66
2022/04/24 08:50:31;;;;;;;20.23;7.43;;;;;;;14.43;66.80;100300.19;7389025;19;20029;-68
2022/04/24 08:52:59;;;;;;;20.48;6.75;;;;;;;14.46;66.36;100295.38;7386197;19;20381;-63
2022/04/24 08:55:28;;;;;;;16.52;6.82;;;;;;;14.51;66.11;100298.25;7388973;19;20439;-65
2022/04/24 08:57:56;;;;;;;14.82;6.40;;;;;;;14.54;66.25;100294.38;7389173;19;20018;-64
2022/04/24 09:00:24;;;;;;;17.17;6.43;;;;;;;14.62;66.46;100298.75;7387058;19;20039;-66
2022/04/24 09:02:51;;;;;;;23.27;7.07;;;;;;;14.68;66.27;100304.06;7389093;19;20129;-65
2022/04/24 09:05:20;;;;;;;15.77;6.72;;;;;;;14.75;66.39;100306.78;7388636;19;20014;-63
2022/04/24 09:07:48;;;;;;;12.65;5.72;;;;;;;14.90;64.37;100308.31;7386170;19;20053;-65
2022/04/24 09:10:53;;;;;;;14.35;6.20;;;;;;;14.86;63.59;100309.72;7385549;19;20458;-66
2022/04/24 09:13:29;;;;;;;18.98;6.93;;;;;;;14.91;64.37;100311.78;7388147;19;20014;-67
2022/04/24 09:16:02;;;;;;;12.52;5.32;;;;;;;15.00;63.22;100323.88;7386608;19;20514;-65
2022/04/24 09:18:40;;;;;;;14.00;6.30;;;;;;;15.12;62.79;100319.66;7385144;19;20025;-66
2022/04/24 09:21:25;;;;;;;12.13;5.78;;;;;;;15.21;62.96;100315.84;7384812;19;20372;-66
2022/04/24 09:23:58;;;;;;;13.60;5.80;;;;;;;15.36;61.96;100313.06;7387862;19;20015;-65
2022/04/24 09:26:26;;;;;;;12.02;5.70;;;;;;;15.47;61.79;100317.00;7384461;19;20036;-65
2022/04/24 09:29:13;;;;;;;14.25;5.47;;;;;;;15.57;61.36;100313.00;7391932;19;20455;-64
2022/04/24 09:31:45;;;;;;;15.32;4.70;;;;;;;15.69;60.20;100319.38;7392137;19;20021;-65
2022/04/24 09:34:14;;;;;;;14.55;4.88;;;;;;;15.79;60.20;100308.38;7394052;19;20374;-65
2022/04/24 09:36:41;;;;;;;13.70;4.85;;;;;;;15.89;60.01;100323.91;7392599;19;20010;-65
2022/04/24 09:39:09;;;;;;;17.20;5.65;;;;;;;15.96;59.23;100325.56;7392657;19;20435;-64
2022/04/24 09:41:37;;;;;;;14.45;5.35;;;;;;;16.03;57.57;100323.75;7390160;19;20343;-65
2022/04/24 09:44:19;;;;;;;14.68;5.07;;;;;;;16.10;58.25;100329.88;7394083;19;20085;-66
2022/04/24 09:46:48;;;;;;;12.57;4.75;;;;;;;16.19;57.78;100320.72;7391957;19;20014;-63
2022/04/24 09:49:15;;;;;;;17.35;5.38;;;;;;;16.33;56.62;100320.75;7391730;19;20028;-66
2022/04/24 09:51:43;;;;;;;13.13;4.80;;;;;;;16.44;56.04;100325.44;7396394;19;20010;-65
2022/04/24 09:54:10;;;;;;;13.25;5.00;;;;;;;16.54;56.73;100324.03;7393156;19;20022;-64
2022/04/24 09:56:39;;;;;;;15.23;5.43;;;;;;;16.62;56.83;100326.50;7391764;19;20010;-65
2022/04/24 09:59:08;;;;;;;15.02;4.45;;;;;;;16.68;56.88;100320.38;7391211;19;20024;-63
2022/04/24 10:01:36;;;;;;;15.32;4.85;;;;;;;16.69;55.83;100326.50;7387363;19;20010;-66
2022/04/24 10:04:05;;;;;;;14.23;5.05;;;;;;;16.76;56.18;100326.50;7390743;19;20014;-64
2022/04/24 10:06:34;;;;;;;14.70;4.82;;;;;;;16.84;56.67;100334.25;7391735;19;20019;-64
2022/04/24 10:09:01;;;;;;;13.90;4.45;;;;;;;16.89;55.57;100335.28;7391783;19;20003;-65
2022/04/24 10:11:29;;;;;;;9.98;3.97;;;;;;;16.87;55.52;100324.03;7391910;19;20010;-66
2022/04/24 10:14:06;;;;;;;15.00;5.15;;;;;;;16.83;54.72;100332.63;7390899;19;20010;-65
2022/04/24 10:16:37;;;;;;;14.45;5.00;;;;;;;16.85;55.27;100338.56;7391586;19;20119;-64
2022/04/24 10:19:38;;;;;;;12.55;5.40;;;;;;;16.67;55.85;100333.84;7391254;19;20059;-65
2022/04/24 10:22:37;;;;;;;17.13;5.15;;;;;;;16.63;55.70;100343.25;7392864;19;20339;-65
2022/04/24 10:25:05;;;;;;;11.55;4.65;;;;;;;16.62;56.19;100339.78;7389947;19;20454;-65
2022/04/24 10:27:44;;;;;;;13.05;4.88;;;;;;;16.70;56.57;100343.28;7391981;19;20014;-66
2022/04/24 10:30:34;;;;;;;19.17;5.18;;;;;;;16.72;56.22;100341.22;7390693;19;20022;-66
2022/04/24 10:33:21;;;;;;;16.55;4.97;;;;;;;16.70;56.16;100341.44;7393683;19;20082;-67
2022/04/24 10:35:53;;;;;;;10.88;3.78;;;;;;;16.76;55.23;100345.91;7390809;19;20498;-67
2022/04/24 10:38:23;;;;;;;11.82;3.90;;;;;;;16.87;55.31;100344.47;7392662;19;20590;-65
2022/04/24 10:41:00;;;;;;;13.60;4.60;;;;;;;16.96;53.86;100346.75;7390483;19;20054;-66
2022/04/24 10:43:38;;;;;;;11.02;3.70;;;;;;;17.02;54.58;100347.72;7392767;19;20014;-65
2022/04/24 10:46:47;;;;;;;15.88;4.85;;;;;;;17.13;54.85;100346.28;7390500;19;20014;-63
2022/04/24 10:49:16;;;;;;;7.63;3.33;;;;;;;17.24;53.82;100354.44;7392228;19;20706;-65
2022/04/24 10:51:56;;;;;;;10.85;3.38;;;;;;;17.32;52.94;100353.44;7393870;19;20010;-66
2022/04/24 10:54:32;;;;;;;10.05;4.07;;;;;;;17.21;51.58;100344.25;7392043;19;20007;-66
2022/04/24 10:57:00;;;;;;;9.45;3.90;;;;;;;17.28;51.51;100357.50;7391732;19;20014;-64
2022/04/24 10:59:59;;;;;;;8.05;4.07;;;;;;;17.34;51.32;100354.84;7391130;19;20022;-65
2022/04/24 11:02:33;;;;;;;12.32;3.53;;;;;;;17.41;51.82;100347.66;7389457;19;20026;-67
2022/04/24 11:05:26;;;;;;;8.93;3.90;;;;;;;17.54;51.06;100354.78;7391815;19;20018;-64
2022/04/24 11:08:04;;;;;;;5.65;3.28;;;;;;;17.72;49.21;100359.47;7391603;19;20018;-63
2022/04/24 11:10:45;;;;;;;9.32;3.33;;;;;;;17.75;50.23;100356.38;7391975;19;20022;-66
2022/04/24 11:13:18;;;;;;;9.07;3.83;;;;;;;17.82;48.89;100355.34;7392270;19;20058;-67
2022/04/24 11:15:48;;;;;;;8.80;3.30;;;;;;;17.63;45.22;100369.50;7389898;19;20015;-68
2022/04/24 11:18:26;;;;;;;6.82;2.97;;;;;;;17.51;44.90;100360.53;7388929;19;20006;-64
2022/04/24 11:21:03;;;;;;;8.57;3.63;;;;;;;17.50;45.24;100366.88;7389151;19;20047;-67
2022/04/24 11:23:38;;;;;;;4.85;3.08;;;;;;;17.52;43.49;100357.63;7386332;19;20332;-64
2022/04/24 11:26:09;;;;;;;5.72;3.58;;;;;;;17.61;44.02;100352.13;7392457;19;20010;-66
2022/04/24 11:28:42;;;;;;;7.18;3.10;;;;;;;17.68;45.48;100350.25;7391360;19;20013;-67